sensor_id;sensor_type;location;lat;lon;timestamp;P1;durP1;ratioP1;P2;durP2;ratioP2
417;SDS011;49;48.530;9.200;2023-07-24T00:00:04;16.00;;;10.13;;
417;SDS011;49;48.530;9.200;2023-07-24T00:02:32;17.27;;;10.57;;
417;SDS011;49;48.530;9.200;2023-07-24T00:04:59;14.40;;;9.17;;
417;SDS011;49;48.530;9.200;2023-07-24T00:07:27;19.13;;;10.03;;
417;SDS011;49;48.530;9.200;2023-07-24T00:09:54;18.63;;;9.80;;
417;SDS011;49;48.530;9.200;2023-07-24T00:12:22;13.30;;;9.13;;
417;SDS011;49;48.530;9.200;2023-07-24T00:14:51;16.50;;;9.83;;
417;SDS011;49;48.530;9.200;2023-07-24T00:17:20;20.63;;;9.83;;
417;SDS011;49;48.530;9.200;2023-07-24T00:19:48;16.20;;;10.20;;
417;SDS011;49;48.530;9.200;2023-07-24T00:22:15;14.70;;;9.03;;
417;SDS011;49;48.530;9.200;2023-07-24T00:24:51;15.77;;;9.70;;
417;SDS011;49;48.530;9.200;2023-07-24T00:27:32;16.80;;;9.60;;
417;SDS011;49;48.530;9.200;2023-07-24T00:30:01;15.83;;;9.50;;
417;SDS011;49;48.530;9.200;2023-07-24T00:32:28;16.80;;;10.00;;
417;SDS011;49;48.530;9.200;2023-07-24T00:34:55;29.77;;;9.63;;
417;SDS011;49;48.530;9.200;2023-07-24T00:37:25;18.27;;;10.20;;
417;SDS011;49;48.530;9.200;2023-07-24T00:39:52;17.27;;;10.20;;
417;SDS011;49;48.530;9.200;2023-07-24T00:42:21;15.90;;;9.13;;
417;SDS011;49;48.530;9.200;2023-07-24T00:44:50;15.40;;;9.27;;
417;SDS011;49;48.530;9.200;2023-07-24T00:47:17;23.70;;;10.67;;
417;SDS011;49;48.530;9.200;2023-07-24T00:49:44;16.90;;;10.10;;
417;SDS011;49;48.530;9.200;2023-07-24T00:52:15;22.83;;;10.30;;
417;SDS011;49;48.530;9.200;2023-07-24T00:54:42;24.27;;;10.33;;
417;SDS011;49;48.530;9.200;2023-07-24T00:57:11;17.00;;;10.17;;
417;SDS011;49;48.530;9.200;2023-07-24T00:59:43;17.43;;;10.63;;
417;SDS011;49;48.530;9.200;2023-07-24T01:02:13;18.30;;;10.67;;
417;SDS011;49;48.530;9.200;2023-07-24T01:04:43;17.30;;;9.70;;
417;SDS011;49;48.530;9.200;2023-07-24T01:07:10;17.23;;;9.77;;
417;SDS011;49;48.530;9.200;2023-07-24T01:09:37;16.10;;;10.10;;
417;SDS011;49;48.530;9.200;2023-07-24T01:12:07;17.37;;;10.00;;
417;SDS011;49;48.530;9.200;2023-07-24T01:14:40;21.23;;;10.70;;
417;SDS011;49;48.530;9.200;2023-07-24T01:17:14;17.10;;;9.70;;
417;SDS011;49;48.530;9.200;2023-07-24T01:19:46;19.27;;;10.63;;
417;SDS011;49;48.530;9.200;2023-07-24T01:22:15;18.40;;;10.10;;
417;SDS011;49;48.530;9.200;2023-07-24T01:24:55;18.13;;;10.70;;
417;SDS011;49;48.530;9.200;2023-07-24T01:27:31;16.73;;;10.70;;
417;SDS011;49;48.530;9.200;2023-07-24T01:29:58;15.67;;;9.67;;
417;SDS011;49;48.530;9.200;2023-07-24T01:32:25;22.43;;;10.43;;
417;SDS011;49;48.530;9.200;2023-07-24T01:34:52;15.07;;;10.03;;
417;SDS011;49;48.530;9.200;2023-07-24T01:37:22;17.60;;;10.67;;
417;SDS011;49;48.530;9.200;2023-07-24T01:39:51;19.60;;;10.53;;
417;SDS011;49;48.530;9.200;2023-07-24T01:42:20;22.33;;;11.37;;
417;SDS011;49;48.530;9.200;2023-07-24T01:44:52;20.70;;;10.23;;
417;SDS011;49;48.530;9.200;2023-07-24T01:47:19;22.87;;;10.40;;
417;SDS011;49;48.530;9.200;2023-07-24T01:49:45;15.93;;;10.90;;
417;SDS011;49;48.530;9.200;2023-07-24T01:52:13;16.87;;;10.00;;
417;SDS011;49;48.530;9.200;2023-07-24T01:54:40;18.23;;;9.77;;
417;SDS011;49;48.530;9.200;2023-07-24T01:57:07;15.53;;;10.00;;
417;SDS011;49;48.530;9.200;2023-07-24T01:59:34;20.10;;;10.10;;
417;SDS011;49;48.530;9.200;2023-07-24T02:02:03;16.27;;;10.77;;
417;SDS011;49;48.530;9.200;2023-07-24T02:04:30;19.27;;;10.00;;
417;SDS011;49;48.530;9.200;2023-07-24T02:07:02;18.30;;;10.50;;
417;SDS011;49;48.530;9.200;2023-07-24T02:09:29;17.60;;;10.60;;
417;SDS011;49;48.530;9.200;2023-07-24T02:11:56;16.77;;;10.53;;
417;SDS011;49;48.530;9.200;2023-07-24T02:14:23;21.23;;;11.10;;
417;SDS011;49;48.530;9.200;2023-07-24T02:16:53;19.47;;;11.50;;
417;SDS011;49;48.530;9.200;2023-07-24T02:19:22;17.93;;;10.47;;
417;SDS011;49;48.530;9.200;2023-07-24T02:21:49;21.07;;;11.80;;
417;SDS011;49;48.530;9.200;2023-07-24T02:24:16;23.27;;;11.13;;
417;SDS011;49;48.530;9.200;2023-07-24T02:26:43;16.90;;;10.70;;
417;SDS011;49;48.530;9.200;2023-07-24T02:29:10;23.70;;;10.47;;
417;SDS011;49;48.530;9.200;2023-07-24T02:31:38;23.57;;;11.20;;
417;SDS011;49;48.530;9.200;2023-07-24T02:34:06;19.03;;;10.47;;
417;SDS011;49;48.530;9.200;2023-07-24T02:36:34;24.27;;;11.23;;
417;SDS011;49;48.530;9.200;2023-07-24T02:39:01;19.80;;;11.50;;
417;SDS011;49;48.530;9.200;2023-07-24T02:41:28;20.80;;;11.10;;
417;SDS011;49;48.530;9.200;2023-07-24T02:43:55;15.83;;;10.37;;
417;SDS011;49;48.530;9.200;2023-07-24T02:46:23;17.23;;;11.07;;
417;SDS011;49;48.530;9.200;2023-07-24T02:48:50;17.23;;;10.17;;
417;SDS011;49;48.530;9.200;2023-07-24T02:51:18;17.80;;;10.83;;
417;SDS011;49;48.530;9.200;2023-07-24T02:53:48;20.63;;;11.20;;
417;SDS011;49;48.530;9.200;2023-07-24T02:56:15;18.37;;;11.47;;
417;SDS011;49;48.530;9.200;2023-07-24T02:58:42;16.00;;;10.63;;
417;SDS011;49;48.530;9.200;2023-07-24T03:01:11;18.53;;;10.13;;
417;SDS011;49;48.530;9.200;2023-07-24T03:03:39;18.53;;;11.10;;
417;SDS011;49;48.530;9.200;2023-07-24T03:06:09;15.27;;;10.20;;
417;SDS011;49;48.530;9.200;2023-07-24T03:08:38;17.67;;;11.03;;
417;SDS011;49;48.530;9.200;2023-07-24T03:11:07;18.67;;;11.07;;
417;SDS011;49;48.530;9.200;2023-07-24T03:13:34;22.73;;;11.43;;
417;SDS011;49;48.530;9.200;2023-07-24T03:16:04;18.10;;;10.43;;
417;SDS011;49;48.530;9.200;2023-07-24T03:18:36;24.10;;;10.93;;
417;SDS011;49;48.530;9.200;2023-07-24T03:21:03;19.47;;;9.93;;
417;SDS011;49;48.530;9.200;2023-07-24T03:23:34;18.37;;;11.10;;
417;SDS011;49;48.530;9.200;2023-07-24T03:26:04;26.23;;;12.40;;
417;SDS011;49;48.530;9.200;2023-07-24T03:28:40;17.03;;;10.67;;
417;SDS011;49;48.530;9.200;2023-07-24T03:31:13;20.07;;;11.40;;
417;SDS011;49;48.530;9.200;2023-07-24T03:33:43;19.93;;;10.43;;
417;SDS011;49;48.530;9.200;2023-07-24T03:36:10;16.87;;;10.80;;
417;SDS011;49;48.530;9.200;2023-07-24T03:38:38;17.60;;;10.47;;
417;SDS011;49;48.530;9.200;2023-07-24T03:41:05;23.97;;;11.87;;
417;SDS011;49;48.530;9.200;2023-07-24T03:43:32;20.40;;;11.90;;
417;SDS011;49;48.530;9.200;2023-07-24T03:46:07;21.00;;;11.67;;
417;SDS011;49;48.530;9.200;2023-07-24T03:48:37;21.53;;;10.73;;
417;SDS011;49;48.530;9.200;2023-07-24T03:51:09;19.77;;;12.03;;
417;SDS011;49;48.530;9.200;2023-07-24T03:53:36;18.43;;;11.47;;
417;SDS011;49;48.530;9.200;2023-07-24T03:56:03;20.93;;;11.40;;
417;SDS011;49;48.530;9.200;2023-07-24T03:58:30;20.87;;;11.80;;
417;SDS011;49;48.530;9.200;2023-07-24T04:00:57;17.57;;;10.90;;
417;SDS011;49;48.530;9.200;2023-07-24T04:03:26;22.43;;;11.67;;
417;SDS011;49;48.530;9.200;2023-07-24T04:05:54;18.50;;;11.00;;
417;SDS011;49;48.530;9.200;2023-07-24T04:08:21;24.53;;;11.83;;
417;SDS011;49;48.530;9.200;2023-07-24T04:10:51;14.50;;;10.20;;
417;SDS011;49;48.530;9.200;2023-07-24T04:13:20;19.63;;;10.43;;
417;SDS011;49;48.530;9.200;2023-07-24T04:15:50;19.93;;;10.90;;
417;SDS011;49;48.530;9.200;2023-07-24T04:18:17;20.67;;;11.10;;
417;SDS011;49;48.530;9.200;2023-07-24T04:20:46;16.87;;;10.60;;
417;SDS011;49;48.530;9.200;2023-07-24T04:23:17;16.93;;;10.40;;
417;SDS011;49;48.530;9.200;2023-07-24T04:25:49;17.07;;;10.33;;
417;SDS011;49;48.530;9.200;2023-07-24T04:28:19;22.77;;;10.87;;
417;SDS011;49;48.530;9.200;2023-07-24T04:30:49;20.00;;;11.30;;
417;SDS011;49;48.530;9.200;2023-07-24T04:33:19;18.47;;;10.77;;
417;SDS011;49;48.530;9.200;2023-07-24T04:35:55;20.97;;;11.70;;
417;SDS011;49;48.530;9.200;2023-07-24T04:38:29;18.03;;;9.93;;
417;SDS011;49;48.530;9.200;2023-07-24T04:41:00;18.73;;;9.73;;
417;SDS011;49;48.530;9.200;2023-07-24T04:43:32;18.83;;;11.23;;
417;SDS011;49;48.530;9.200;2023-07-24T04:45:59;32.10;;;11.50;;
417;SDS011;49;48.530;9.200;2023-07-24T04:48:28;21.63;;;11.57;;
417;SDS011;49;48.530;9.200;2023-07-24T04:50:58;20.57;;;11.60;;
417;SDS011;49;48.530;9.200;2023-07-24T04:53:25;22.07;;;11.50;;
417;SDS011;49;48.530;9.200;2023-07-24T04:55:52;22.87;;;10.40;;
417;SDS011;49;48.530;9.200;2023-07-24T04:58:23;21.77;;;11.23;;
417;SDS011;49;48.530;9.200;2023-07-24T05:00:50;17.90;;;10.40;;
417;SDS011;49;48.530;9.200;2023-07-24T05:03:17;18.30;;;10.20;;
417;SDS011;49;48.530;9.200;2023-07-24T05:05:47;19.23;;;11.47;;
417;SDS011;49;48.530;9.200;2023-07-24T05:08:17;17.13;;;9.93;;
417;SDS011;49;48.530;9.200;2023-07-24T05:10:45;18.97;;;10.17;;
417;SDS011;49;48.530;9.200;2023-07-24T05:13:12;21.43;;;11.20;;
417;SDS011;49;48.530;9.200;2023-07-24T05:15:39;18.50;;;10.60;;
417;SDS011;49;48.530;9.200;2023-07-24T05:18:06;20.03;;;11.10;;
417;SDS011;49;48.530;9.200;2023-07-24T05:20:33;16.77;;;10.53;;
417;SDS011;49;48.530;9.200;2023-07-24T05:23:03;21.23;;;11.57;;
417;SDS011;49;48.530;9.200;2023-07-24T05:25:32;18.93;;;10.80;;
417;SDS011;49;48.530;9.200;2023-07-24T05:27:59;22.53;;;11.07;;
417;SDS011;49;48.530;9.200;2023-07-24T05:30:29;20.20;;;10.97;;
417;SDS011;49;48.530;9.200;2023-07-24T05:33:03;19.40;;;10.53;;
417;SDS011;49;48.530;9.200;2023-07-24T05:35:31;20.83;;;10.93;;
417;SDS011;49;48.530;9.200;2023-07-24T05:38:15;23.63;;;11.03;;
417;SDS011;49;48.530;9.200;2023-07-24T05:40:44;25.00;;;11.63;;
417;SDS011;49;48.530;9.200;2023-07-24T05:43:11;19.73;;;10.57;;
417;SDS011;49;48.530;9.200;2023-07-24T05:45:38;23.00;;;11.63;;
417;SDS011;49;48.530;9.200;2023-07-24T05:48:06;18.90;;;11.50;;
417;SDS011;49;48.530;9.200;2023-07-24T05:50:35;18.53;;;10.17;;
417;SDS011;49;48.530;9.200;2023-07-24T05:53:07;18.30;;;11.23;;
417;SDS011;49;48.530;9.200;2023-07-24T05:55:37;19.90;;;10.30;;
417;SDS011;49;48.530;9.200;2023-07-24T05:58:06;17.20;;;11.20;;
417;SDS011;49;48.530;9.200;2023-07-24T06:00:34;25.33;;;11.30;;
417;SDS011;49;48.530;9.200;2023-07-24T06:03:01;20.33;;;11.00;;
417;SDS011;49;48.530;9.200;2023-07-24T06:05:28;25.03;;;10.47;;
417;SDS011;49;48.530;9.200;2023-07-24T06:07:55;19.40;;;11.50;;
417;SDS011;49;48.530;9.200;2023-07-24T06:10:22;25.53;;;11.30;;
417;SDS011;49;48.530;9.200;2023-07-24T06:12:50;17.77;;;10.30;;
417;SDS011;49;48.530;9.200;2023-07-24T06:15:18;18.00;;;10.93;;
417;SDS011;49;48.530;9.200;2023-07-24T06:17:51;29.17;;;11.53;;
417;SDS011;49;48.530;9.200;2023-07-24T06:20:22;25.13;;;11.10;;
417;SDS011;49;48.530;9.200;2023-07-24T06:22:51;23.30;;;10.13;;
417;SDS011;49;48.530;9.200;2023-07-24T06:25:19;19.50;;;11.47;;
417;SDS011;49;48.530;9.200;2023-07-24T06:27:50;22.17;;;10.70;;
417;SDS011;49;48.530;9.200;2023-07-24T06:30:22;22.80;;;11.67;;
417;SDS011;49;48.530;9.200;2023-07-24T06:32:59;21.40;;;9.43;;
417;SDS011;49;48.530;9.200;2023-07-24T06:35:32;25.63;;;10.97;;
417;SDS011;49;48.530;9.200;2023-07-24T06:38:00;23.50;;;12.40;;
417;SDS011;49;48.530;9.200;2023-07-24T06:40:31;22.40;;;10.83;;
417;SDS011;49;48.530;9.200;2023-07-24T06:43:18;25.20;;;10.77;;
417;SDS011;49;48.530;9.200;2023-07-24T06:46:07;17.00;;;10.50;;
417;SDS011;49;48.530;9.200;2023-07-24T06:48:52;20.17;;;11.10;;
417;SDS011;49;48.530;9.200;2023-07-24T06:51:27;20.47;;;10.60;;
417;SDS011;49;48.530;9.200;2023-07-24T06:54:08;18.70;;;11.10;;
417;SDS011;49;48.530;9.200;2023-07-24T06:56:51;17.33;;;10.70;;
417;SDS011;49;48.530;9.200;2023-07-24T06:59:34;19.57;;;11.23;;
417;SDS011;49;48.530;9.200;2023-07-24T07:02:08;23.00;;;11.20;;
417;SDS011;49;48.530;9.200;2023-07-24T07:04:35;22.83;;;11.57;;
417;SDS011;49;48.530;9.200;2023-07-24T07:10:09;24.90;;;11.50;;
417;SDS011;49;48.530;9.200;2023-07-24T07:12:51;24.17;;;11.77;;
417;SDS011;49;48.530;9.200;2023-07-24T07:15:18;30.60;;;12.17;;
417;SDS011;49;48.530;9.200;2023-07-24T07:17:51;20.10;;;11.83;;
417;SDS011;49;48.530;9.200;2023-07-24T07:20:22;21.57;;;10.83;;
417;SDS011;49;48.530;9.200;2023-07-24T07:23:07;26.40;;;11.67;;
417;SDS011;49;48.530;9.200;2023-07-24T07:25:36;23.20;;;10.77;;
417;SDS011;49;48.530;9.200;2023-07-24T07:28:23;19.40;;;12.10;;
417;SDS011;49;48.530;9.200;2023-07-24T07:31:06;24.90;;;11.73;;
417;SDS011;49;48.530;9.200;2023-07-24T07:33:43;20.50;;;11.90;;
417;SDS011;49;48.530;9.200;2023-07-24T07:36:12;18.80;;;11.77;;
417;SDS011;49;48.530;9.200;2023-07-24T07:38:54;18.57;;;10.67;;
417;SDS011;49;48.530;9.200;2023-07-24T07:41:26;24.17;;;12.63;;
417;SDS011;49;48.530;9.200;2023-07-24T07:44:07;23.17;;;11.83;;
417;SDS011;49;48.530;9.200;2023-07-24T07:46:50;21.10;;;11.30;;
417;SDS011;49;48.530;9.200;2023-07-24T07:49:28;19.50;;;11.57;;
417;SDS011;49;48.530;9.200;2023-07-24T07:52:05;20.07;;;11.80;;
417;SDS011;49;48.530;9.200;2023-07-24T07:54:34;24.93;;;11.97;;
417;SDS011;49;48.530;9.200;2023-07-24T07:57:08;20.63;;;10.63;;
417;SDS011;49;48.530;9.200;2023-07-24T07:59:39;19.53;;;12.17;;
417;SDS011;49;48.530;9.200;2023-07-24T08:02:23;21.70;;;10.83;;
417;SDS011;49;48.530;9.200;2023-07-24T08:04:55;25.30;;;10.70;;
417;SDS011;49;48.530;9.200;2023-07-24T08:07:23;17.83;;;11.20;;
417;SDS011;49;48.530;9.200;2023-07-24T08:09:50;23.60;;;11.30;;
417;SDS011;49;48.530;9.200;2023-07-24T08:12:25;20.33;;;10.57;;
417;SDS011;49;48.530;9.200;2023-07-24T08:14:52;16.03;;;9.40;;
417;SDS011;49;48.530;9.200;2023-07-24T08:17:26;28.27;;;11.30;;
417;SDS011;49;48.530;9.200;2023-07-24T08:20:02;19.70;;;9.00;;
417;SDS011;49;48.530;9.200;2023-07-24T08:22:32;20.50;;;9.20;;
417;SDS011;49;48.530;9.200;2023-07-24T08:25:01;13.20;;;9.07;;
417;SDS011;49;48.530;9.200;2023-07-24T08:27:29;18.30;;;9.07;;
417;SDS011;49;48.530;9.200;2023-07-24T08:30:02;18.80;;;9.30;;
417;SDS011;49;48.530;9.200;2023-07-24T08:32:34;14.07;;;9.23;;
417;SDS011;49;48.530;9.200;2023-07-24T08:35:06;19.87;;;9.77;;
417;SDS011;49;48.530;9.200;2023-07-24T08:37:42;17.43;;;9.87;;
417;SDS011;49;48.530;9.200;2023-07-24T08:40:12;21.50;;;10.40;;
417;SDS011;49;48.530;9.200;2023-07-24T08:43:02;18.30;;;9.63;;
417;SDS011;49;48.530;9.200;2023-07-24T08:45:44;19.67;;;10.10;;
417;SDS011;49;48.530;9.200;2023-07-24T08:48:17;15.93;;;8.77;;
417;SDS011;49;48.530;9.200;2023-07-24T08:50:59;15.63;;;8.40;;
417;SDS011;49;48.530;9.200;2023-07-24T08:53:31;24.83;;;9.60;;
417;SDS011;49;48.530;9.200;2023-07-24T08:56:03;25.43;;;9.03;;
417;SDS011;49;48.530;9.200;2023-07-24T08:58:46;23.27;;;8.73;;
417;SDS011;49;48.530;9.200;2023-07-24T09:01:16;22.57;;;8.07;;
417;SDS011;49;48.530;9.200;2023-07-24T09:06:43;16.93;;;9.17;;
417;SDS011;49;48.530;9.200;2023-07-24T09:09:18;17.43;;;9.27;;
417;SDS011;49;48.530;9.200;2023-07-24T09:11:54;16.10;;;9.90;;
417;SDS011;49;48.530;9.200;2023-07-24T09:14:26;22.80;;;9.63;;
417;SDS011;49;48.530;9.200;2023-07-24T09:17:08;15.10;;;8.10;;
417;SDS011;49;48.530;9.200;2023-07-24T09:19:42;20.33;;;8.40;;
417;SDS011;49;48.530;9.200;2023-07-24T09:22:27;16.20;;;8.90;;
417;SDS011;49;48.530;9.200;2023-07-24T09:25:05;17.80;;;8.50;;
417;SDS011;49;48.530;9.200;2023-07-24T09:27:36;17.50;;;8.17;;
417;SDS011;49;48.530;9.200;2023-07-24T09:30:17;14.50;;;8.33;;
417;SDS011;49;48.530;9.200;2023-07-24T09:32:58;17.97;;;9.10;;
417;SDS011;49;48.530;9.200;2023-07-24T09:35:29;14.27;;;7.60;;
417;SDS011;49;48.530;9.200;2023-07-24T09:38:15;13.23;;;7.97;;
417;SDS011;49;48.530;9.200;2023-07-24T09:41:00;16.23;;;7.73;;
417;SDS011;49;48.530;9.200;2023-07-24T09:43:42;11.70;;;7.93;;
417;SDS011;49;48.530;9.200;2023-07-24T09:49:13;13.30;;;7.30;;
417;SDS011;49;48.530;9.200;2023-07-24T09:51:53;24.50;;;7.93;;
417;SDS011;49;48.530;9.200;2023-07-24T09:58:07;16.30;;;9.80;;
417;SDS011;49;48.530;9.200;2023-07-24T10:00:53;22.07;;;10.50;;
417;SDS011;49;48.530;9.200;2023-07-24T10:03:27;15.27;;;8.33;;
417;SDS011;49;48.530;9.200;2023-07-24T10:06:10;16.27;;;9.50;;
417;SDS011;49;48.530;9.200;2023-07-24T10:08:57;16.00;;;7.63;;
417;SDS011;49;48.530;9.200;2023-07-24T10:11:29;15.73;;;9.70;;
417;SDS011;49;48.530;9.200;2023-07-24T10:14:01;24.90;;;14.00;;
417;SDS011;49;48.530;9.200;2023-07-24T10:16:38;31.17;;;16.70;;
417;SDS011;49;48.530;9.200;2023-07-24T10:19:20;17.40;;;9.27;;
417;SDS011;49;48.530;9.200;2023-07-24T10:21:49;31.43;;;9.60;;
417;SDS011;49;48.530;9.200;2023-07-24T10:24:28;15.20;;;8.73;;
417;SDS011;49;48.530;9.200;2023-07-24T10:27:08;13.63;;;8.00;;
417;SDS011;49;48.530;9.200;2023-07-24T10:29:38;13.47;;;8.57;;
417;SDS011;49;48.530;9.200;2023-07-24T10:32:18;15.53;;;9.07;;
417;SDS011;49;48.530;9.200;2023-07-24T10:34:45;13.90;;;8.53;;
417;SDS011;49;48.530;9.200;2023-07-24T10:37:30;17.43;;;8.53;;
417;SDS011;49;48.530;9.200;2023-07-24T10:40:04;20.90;;;10.17;;
417;SDS011;49;48.530;9.200;2023-07-24T10:42:36;12.60;;;7.97;;
417;SDS011;49;48.530;9.200;2023-07-24T10:45:06;14.00;;;8.23;;
417;SDS011;49;48.530;9.200;2023-07-24T10:47:37;40.40;;;9.07;;
417;SDS011;49;48.530;9.200;2023-07-24T10:50:04;15.87;;;9.33;;
417;SDS011;49;48.530;9.200;2023-07-24T10:52:33;23.07;;;9.73;;
417;SDS011;49;48.530;9.200;2023-07-24T10:55:05;26.40;;;11.23;;
417;SDS011;49;48.530;9.200;2023-07-24T10:57:33;14.10;;;9.13;;
417;SDS011;49;48.530;9.200;2023-07-24T11:00:05;17.17;;;8.80;;
417;SDS011;49;48.530;9.200;2023-07-24T11:02:34;15.40;;;8.57;;
417;SDS011;49;48.530;9.200;2023-07-24T11:05:10;15.53;;;8.43;;
417;SDS011;49;48.530;9.200;2023-07-24T11:07:47;20.40;;;9.37;;
417;SDS011;49;48.530;9.200;2023-07-24T11:10:14;17.90;;;8.90;;
417;SDS011;49;48.530;9.200;2023-07-24T11:12:45;20.53;;;9.97;;
417;SDS011;49;48.530;9.200;2023-07-24T11:15:12;15.83;;;8.37;;
417;SDS011;49;48.530;9.200;2023-07-24T11:17:40;12.50;;;8.63;;
417;SDS011;49;48.530;9.200;2023-07-24T11:20:09;13.43;;;8.37;;
417;SDS011;49;48.530;9.200;2023-07-24T11:22:41;14.93;;;8.50;;
417;SDS011;49;48.530;9.200;2023-07-24T11:25:10;16.37;;;8.53;;
417;SDS011;49;48.530;9.200;2023-07-24T11:27:38;12.40;;;8.10;;
417;SDS011;49;48.530;9.200;2023-07-24T11:30:08;13.33;;;8.33;;
417;SDS011;49;48.530;9.200;2023-07-24T11:32:45;13.30;;;8.30;;
417;SDS011;49;48.530;9.200;2023-07-24T11:35:12;11.30;;;8.00;;
417;SDS011;49;48.530;9.200;2023-07-24T11:37:40;14.83;;;8.20;;
417;SDS011;49;48.530;9.200;2023-07-24T11:40:07;16.10;;;8.93;;
417;SDS011;49;48.530;9.200;2023-07-24T11:42:38;13.90;;;7.90;;
417;SDS011;49;48.530;9.200;2023-07-24T11:45:06;17.70;;;10.00;;
417;SDS011;49;48.530;9.200;2023-07-24T11:47:46;24.10;;;9.43;;
417;SDS011;49;48.530;9.200;2023-07-24T11:50:19;11.30;;;7.87;;
417;SDS011;49;48.530;9.200;2023-07-24T11:52:49;13.03;;;8.53;;
417;SDS011;49;48.530;9.200;2023-07-24T11:55:30;12.13;;;7.77;;
417;SDS011;49;48.530;9.200;2023-07-24T11:57:58;12.47;;;7.60;;
417;SDS011;49;48.530;9.200;2023-07-24T12:00:35;14.53;;;7.57;;
417;SDS011;49;48.530;9.200;2023-07-24T12:03:02;16.37;;;9.50;;
417;SDS011;49;48.530;9.200;2023-07-24T12:05:38;12.63;;;7.77;;
417;SDS011;49;48.530;9.200;2023-07-24T12:08:05;12.90;;;6.83;;
417;SDS011;49;48.530;9.200;2023-07-24T12:10:35;14.10;;;7.37;;
417;SDS011;49;48.530;9.200;2023-07-24T12:13:05;17.10;;;10.73;;
417;SDS011;49;48.530;9.200;2023-07-24T12:15:39;13.30;;;6.90;;
417;SDS011;49;48.530;9.200;2023-07-24T12:18:06;10.13;;;6.93;;
417;SDS011;49;48.530;9.200;2023-07-24T12:20:35;9.47;;;6.13;;
417;SDS011;49;48.530;9.200;2023-07-24T12:23:02;10.87;;;6.23;;
417;SDS011;49;48.530;9.200;2023-07-24T12:25:32;8.53;;;5.80;;
417;SDS011;49;48.530;9.200;2023-07-24T12:27:59;8.47;;;6.33;;
417;SDS011;49;48.530;9.200;2023-07-24T12:30:27;14.03;;;6.03;;
417;SDS011;49;48.530;9.200;2023-07-24T12:32:58;10.70;;;6.20;;
417;SDS011;49;48.530;9.200;2023-07-24T12:35:26;9.40;;;6.50;;
417;SDS011;49;48.530;9.200;2023-07-24T12:37:53;8.00;;;5.80;;
417;SDS011;49;48.530;9.200;2023-07-24T12:40:20;10.10;;;6.17;;
417;SDS011;49;48.530;9.200;2023-07-24T12:42:47;10.20;;;6.30;;
417;SDS011;49;48.530;9.200;2023-07-24T12:45:19;9.13;;;5.70;;
417;SDS011;49;48.530;9.200;2023-07-24T12:47:50;16.37;;;6.10;;
417;SDS011;49;48.530;9.200;2023-07-24T12:50:24;10.17;;;6.07;;
417;SDS011;49;48.530;9.200;2023-07-24T12:53:02;16.17;;;6.20;;
417;SDS011;49;48.530;9.200;2023-07-24T12:55:30;9.80;;;5.80;;
417;SDS011;49;48.530;9.200;2023-07-24T12:57:58;9.20;;;6.00;;
417;SDS011;49;48.530;9.200;2023-07-24T13:00:28;11.67;;;6.13;;
417;SDS011;49;48.530;9.200;2023-07-24T13:03:00;8.87;;;6.00;;
417;SDS011;49;48.530;9.200;2023-07-24T13:05:34;11.30;;;5.97;;
417;SDS011;49;48.530;9.200;2023-07-24T13:08:04;12.03;;;6.00;;
417;SDS011;49;48.530;9.200;2023-07-24T13:10:35;8.50;;;6.03;;
417;SDS011;49;48.530;9.200;2023-07-24T13:13:04;7.97;;;4.90;;
417;SDS011;49;48.530;9.200;2023-07-24T13:15:34;6.60;;;5.50;;
417;SDS011;49;48.530;9.200;2023-07-24T13:18:07;5.50;;;4.23;;
417;SDS011;49;48.530;9.200;2023-07-24T13:20:41;14.93;;;5.40;;
417;SDS011;49;48.530;9.200;2023-07-24T13:23:13;5.07;;;4.03;;
417;SDS011;49;48.530;9.200;2023-07-24T13:25:43;8.20;;;5.40;;
417;SDS011;49;48.530;9.200;2023-07-24T13:28:13;7.13;;;4.63;;
417;SDS011;49;48.530;9.200;2023-07-24T13:30:44;8.93;;;5.13;;
417;SDS011;49;48.530;9.200;2023-07-24T13:33:16;9.20;;;5.53;;
417;SDS011;49;48.530;9.200;2023-07-24T13:35:52;8.37;;;5.10;;
417;SDS011;49;48.530;9.200;2023-07-24T13:38:20;7.20;;;5.03;;
417;SDS011;49;48.530;9.200;2023-07-24T13:40:47;10.30;;;4.93;;
417;SDS011;49;48.530;9.200;2023-07-24T13:43:24;11.33;;;4.90;;
417;SDS011;49;48.530;9.200;2023-07-24T13:45:55;6.77;;;4.63;;
417;SDS011;49;48.530;9.200;2023-07-24T13:48:23;6.50;;;4.70;;
417;SDS011;49;48.530;9.200;2023-07-24T13:51:05;7.20;;;5.60;;
417;SDS011;49;48.530;9.200;2023-07-24T13:53:32;6.40;;;4.50;;
417;SDS011;49;48.530;9.200;2023-07-24T13:56:04;6.50;;;5.07;;
417;SDS011;49;48.530;9.200;2023-07-24T13:58:31;7.90;;;5.30;;
417;SDS011;49;48.530;9.200;2023-07-24T14:01:00;10.43;;;5.23;;
417;SDS011;49;48.530;9.200;2023-07-24T14:03:27;12.93;;;5.50;;
417;SDS011;49;48.530;9.200;2023-07-24T14:06:00;13.30;;;5.20;;
417;SDS011;49;48.530;9.200;2023-07-24T14:08:30;9.47;;;5.23;;
417;SDS011;49;48.530;9.200;2023-07-24T14:10:59;9.70;;;5.57;;
417;SDS011;49;48.530;9.200;2023-07-24T14:13:28;8.47;;;5.00;;
417;SDS011;49;48.530;9.200;2023-07-24T14:15:58;7.40;;;5.20;;
417;SDS011;49;48.530;9.200;2023-07-24T14:18:26;8.07;;;4.90;;
417;SDS011;49;48.530;9.200;2023-07-24T14:20:57;8.50;;;5.13;;
417;SDS011;49;48.530;9.200;2023-07-24T14:23:39;9.33;;;5.03;;
417;SDS011;49;48.530;9.200;2023-07-24T14:26:15;8.27;;;5.57;;
417;SDS011;49;48.530;9.200;2023-07-24T14:28:44;6.97;;;5.20;;
417;SDS011;49;48.530;9.200;2023-07-24T14:31:15;6.00;;;4.70;;
417;SDS011;49;48.530;9.200;2023-07-24T14:33:46;8.70;;;5.50;;
417;SDS011;49;48.530;9.200;2023-07-24T14:36:15;6.93;;;5.10;;
417;SDS011;49;48.530;9.200;2023-07-24T14:38:47;7.57;;;5.30;;
417;SDS011;49;48.530;9.200;2023-07-24T14:41:17;9.13;;;5.20;;
417;SDS011;49;48.530;9.200;2023-07-24T14:43:44;5.77;;;4.90;;
417;SDS011;49;48.530;9.200;2023-07-24T14:46:14;10.03;;;5.67;;
417;SDS011;49;48.530;9.200;2023-07-24T14:48:45;7.70;;;5.03;;
417;SDS011;49;48.530;9.200;2023-07-24T14:51:21;8.50;;;5.40;;
417;SDS011;49;48.530;9.200;2023-07-24T14:53:54;14.30;;;5.20;;
417;SDS011;49;48.530;9.200;2023-07-24T14:56:26;8.07;;;5.03;;
417;SDS011;49;48.530;9.200;2023-07-24T14:58:56;14.27;;;5.27;;
417;SDS011;49;48.530;9.200;2023-07-24T15:01:29;8.77;;;5.60;;
417;SDS011;49;48.530;9.200;2023-07-24T15:03:56;8.03;;;4.93;;
417;SDS011;49;48.530;9.200;2023-07-24T15:06:31;10.13;;;5.80;;
417;SDS011;49;48.530;9.200;2023-07-24T15:09:02;6.60;;;5.70;;
417;SDS011;49;48.530;9.200;2023-07-24T15:11:32;7.97;;;5.60;;
417;SDS011;49;48.530;9.200;2023-07-24T15:14:03;12.33;;;6.27;;
417;SDS011;49;48.530;9.200;2023-07-24T15:16:31;9.43;;;5.33;;
417;SDS011;49;48.530;9.200;2023-07-24T15:18:58;8.23;;;5.77;;
417;SDS011;49;48.530;9.200;2023-07-24T15:21:29;12.87;;;6.20;;
417;SDS011;49;48.530;9.200;2023-07-24T15:23:59;9.00;;;5.83;;
417;SDS011;49;48.530;9.200;2023-07-24T15:26:28;10.93;;;6.30;;
417;SDS011;49;48.530;9.200;2023-07-24T15:28:55;8.23;;;6.07;;
417;SDS011;49;48.530;9.200;2023-07-24T15:31:22;8.03;;;5.50;;
417;SDS011;49;48.530;9.200;2023-07-24T15:33:49;7.93;;;5.23;;
417;SDS011;49;48.530;9.200;2023-07-24T15:36:16;9.80;;;6.80;;
417;SDS011;49;48.530;9.200;2023-07-24T15:38:46;8.87;;;5.60;;
417;SDS011;49;48.530;9.200;2023-07-24T15:41:13;9.77;;;5.63;;
417;SDS011;49;48.530;9.200;2023-07-24T15:43:44;8.50;;;6.03;;
417;SDS011;49;48.530;9.200;2023-07-24T15:46:11;9.23;;;5.87;;
417;SDS011;49;48.530;9.200;2023-07-24T15:48:40;9.17;;;5.63;;
417;SDS011;49;48.530;9.200;2023-07-24T15:51:14;9.00;;;5.60;;
417;SDS011;49;48.530;9.200;2023-07-24T15:53:41;6.50;;;5.20;;
417;SDS011;49;48.530;9.200;2023-07-24T15:56:10;8.33;;;5.00;;
417;SDS011;49;48.530;9.200;2023-07-24T15:58:39;10.33;;;5.47;;
417;SDS011;49;48.530;9.200;2023-07-24T16:01:12;10.17;;;5.53;;
417;SDS011;49;48.530;9.200;2023-07-24T16:03:40;11.13;;;5.90;;
417;SDS011;49;48.530;9.200;2023-07-24T16:06:08;8.30;;;5.77;;
417;SDS011;49;48.530;9.200;2023-07-24T16:08:35;10.47;;;5.90;;
417;SDS011;49;48.530;9.200;2023-07-24T16:11:03;7.80;;;5.60;;
417;SDS011;49;48.530;9.200;2023-07-24T16:13:45;8.77;;;5.10;;
417;SDS011;49;48.530;9.200;2023-07-24T16:16:21;7.30;;;5.50;;